sensor_id;sensor_type;location;lat;lon;timestamp;noise_LAeq;noise_LA_min;noise_LA_max;noise_LA01;noise_LA95
61249;Laerm;47119;49.130;9.218;2023-02-28T00:02:21;42.47;31.96;58.37;;
61249;Laerm;47119;49.130;9.218;2023-02-28T00:04:49;34.12;30.30;38.88;;
61249;Laerm;47119;49.130;9.218;2023-02-28T00:07:18;45.72;30.95;63.88;;
61249;Laerm;47119;49.130;9.218;2023-02-28T00:09:45;47.28;31.49;62.06;;
61249;Laerm;47119;49.130;9.218;2023-02-28T00:12:14;35.28;31.71;39.67;;
61249;Laerm;47119;49.130;9.218;2023-02-28T00:14:41;40.30;32.07;51.61;;
61249;Laerm;47119;49.130;9.218;2023-02-28T00:17:08;49.37;30.67;66.81;;
61249;Laerm;47119;49.130;9.218;2023-02-28T00:19:36;40.85;31.41;53.54;;
61249;Laerm;47119;49.130;9.218;2023-02-28T00:22:06;35.49;30.71;42.24;;
61249;Laerm;47119;49.130;9.218;2023-02-28T00:24:34;36.21;31.15;43.57;;
61249;Laerm;47119;49.130;9.218;2023-02-28T00:29:53;45.20;31.54;62.48;;
61249;Laerm;47119;49.130;9.218;2023-02-28T00:32:21;34.88;30.71;43.22;;
61249;Laerm;47119;49.130;9.218;2023-02-28T00:34:48;43.99;31.56;61.13;;
61249;Laerm;47119;49.130;9.218;2023-02-28T00:37:16;35.00;31.38;43.34;;
61249;Laerm;47119;49.130;9.218;2023-02-28T00:39:45;39.08;31.53;51.50;;
61249;Laerm;47119;49.130;9.218;2023-02-28T00:42:17;35.23;31.49;42.91;;
61249;Laerm;47119;49.130;9.218;2023-02-28T00:44:49;35.46;31.02;49.69;;
61249;Laerm;47119;49.130;9.218;2023-02-28T00:47:18;36.27;30.84;43.85;;
61249;Laerm;47119;49.130;9.218;2023-02-28T00:49:45;36.77;31.37;45.57;;
61249;Laerm;47119;49.130;9.218;2023-02-28T00:52:12;36.28;30.95;48.25;;
61249;Laerm;47119;49.130;9.218;2023-02-28T00:54:39;36.21;32.46;42.95;;
61249;Laerm;47119;49.130;9.218;2023-02-28T00:57:07;36.59;31.21;51.76;;
61249;Laerm;47119;49.130;9.218;2023-02-28T00:59:34;35.71;31.24;41.84;;
61249;Laerm;47119;49.130;9.218;2023-02-28T01:02:06;50.91;31.51;70.96;;
61249;Laerm;47119;49.130;9.218;2023-02-28T01:04:35;35.53;31.18;41.07;;
61249;Laerm;47119;49.130;9.218;2023-02-28T12:12:30;53.42;44.14;68.50;;
61249;Laerm;47119;49.130;9.218;2023-02-28T12:15:44;55.35;45.72;67.81;;
61249;Laerm;47119;49.130;9.218;2023-02-28T12:24:03;54.50;44.31;69.23;;
61249;Laerm;47119;49.130;9.218;2023-02-28T12:27:54;51.99;42.23;70.89;;
61249;Laerm;47119;49.130;9.218;2023-02-28T12:31:06;52.97;43.48;66.27;;
61249;Laerm;47119;49.130;9.218;2023-02-28T12:38:22;55.09;46.70;67.01;;
61249;Laerm;47119;49.130;9.218;2023-02-28T12:45:10;57.09;45.07;70.96;;
61249;Laerm;47119;49.130;9.218;2023-02-28T12:49:34;58.85;41.96;76.32;;
61249;Laerm;47119;49.130;9.218;2023-02-28T12:53:08;55.66;43.96;78.10;;
61249;Laerm;47119;49.130;9.218;2023-02-28T12:56:39;53.74;44.04;65.95;;
61249;Laerm;47119;49.130;9.218;2023-02-28T12:59:52;54.10;41.79;66.06;;
61249;Laerm;47119;49.130;9.218;2023-02-28T13:10:14;56.02;43.20;73.89;;
61249;Laerm;47119;49.130;9.218;2023-02-28T13:13:15;53.39;44.50;66.29;;
61249;Laerm;47119;49.130;9.218;2023-02-28T13:16:00;57.69;46.27;76.39;;
61249;Laerm;47119;49.130;9.218;2023-02-28T13:18:34;53.96;44.11;64.80;;
61249;Laerm;47119;49.130;9.218;2023-02-28T13:21:05;50.90;41.21;60.68;;
61249;Laerm;47119;49.130;9.218;2023-02-28T13:24:02;54.67;44.50;67.26;;
61249;Laerm;47119;49.130;9.218;2023-02-28T13:31:04;55.14;44.48;65.44;;
61249;Laerm;47119;49.130;9.218;2023-02-28T13:34:13;55.90;43.26;72.71;;
61249;Laerm;47119;49.130;9.218;2023-02-28T13:36:40;57.40;43.37;73.83;;
61249;Laerm;47119;49.130;9.218;2023-02-28T13:39:48;55.92;43.13;68.76;;
61249;Laerm;47119;49.130;9.218;2023-02-28T13:42:36;54.45;43.23;66.36;;
61249;Laerm;47119;49.130;9.218;2023-02-28T13:45:27;54.34;44.21;66.14;;
61249;Laerm;47119;49.130;9.218;2023-02-28T13:48:26;58.17;46.84;69.06;;
61249;Laerm;47119;49.130;9.218;2023-02-28T13:50:57;54.91;45.92;70.68;;
61249;Laerm;47119;49.130;9.218;2023-02-28T13:54:18;56.14;44.12;72.75;;
61249;Laerm;47119;49.130;9.218;2023-02-28T16:27:37;64.81;44.18;94.09;;
61249;Laerm;47119;49.130;9.218;2023-02-28T16:30:07;56.69;43.64;75.17;;
61249;Laerm;47119;49.130;9.218;2023-02-28T16:32:40;55.65;42.31;67.76;;
61249;Laerm;47119;49.130;9.218;2023-02-28T16:35:12;54.94;43.77;65.21;;
61249;Laerm;47119;49.130;9.218;2023-02-28T16:38:30;53.89;44.22;65.38;;
61249;Laerm;47119;49.130;9.218;2023-02-28T16:41:02;57.13;44.64;72.90;;
61249;Laerm;47119;49.130;9.218;2023-02-28T16:43:31;54.04;41.26;65.62;;
61249;Laerm;47119;49.130;9.218;2023-02-28T16:45:59;54.62;44.62;66.12;;
61249;Laerm;47119;49.130;9.218;2023-02-28T16:48:27;53.48;43.95;68.07;;
61249;Laerm;47119;49.130;9.218;2023-02-28T16:51:01;55.56;45.64;65.09;;
61249;Laerm;47119;49.130;9.218;2023-02-28T16:53:48;56.70;42.72;67.02;;
61249;Laerm;47119;49.130;9.218;2023-02-28T16:56:42;56.43;43.90;77.88;;
61249;Laerm;47119;49.130;9.218;2023-02-28T16:59:21;55.82;45.94;68.80;;
61249;Laerm;47119;49.130;9.218;2023-02-28T17:01:55;53.92;45.01;64.64;;
61249;Laerm;47119;49.130;9.218;2023-02-28T17:04:27;59.32;41.99;78.65;;
61249;Laerm;47119;49.130;9.218;2023-02-28T17:06:57;52.48;43.15;63.47;;
61249;Laerm;47119;49.130;9.218;2023-02-28T17:09:26;54.73;44.66;68.48;;
61249;Laerm;47119;49.130;9.218;2023-02-28T17:11:56;58.93;44.62;76.23;;
61249;Laerm;47119;49.130;9.218;2023-02-28T17:14:27;54.28;42.15;64.99;;
61249;Laerm;47119;49.130;9.218;2023-02-28T17:16:54;52.83;44.69;63.50;;
61249;Laerm;47119;49.130;9.218;2023-02-28T17:19:21;54.95;42.23;72.30;;
61249;Laerm;47119;49.130;9.218;2023-02-28T17:21:49;55.62;45.98;68.83;;
61249;Laerm;47119;49.130;9.218;2023-02-28T17:24:24;57.79;42.96;78.63;;
61249;Laerm;47119;49.130;9.218;2023-02-28T17:27:00;53.13;41.42;65.59;;
61249;Laerm;47119;49.130;9.218;2023-02-28T17:30:04;53.54;43.94;65.61;;
61249;Laerm;47119;49.130;9.218;2023-02-28T17:33:03;56.71;41.82;73.02;;
61249;Laerm;47119;49.130;9.218;2023-02-28T17:35:40;53.04;42.65;65.60;;
61249;Laerm;47119;49.130;9.218;2023-02-28T17:38:16;52.30;42.05;63.60;;
61249;Laerm;47119;49.130;9.218;2023-02-28T17:40:52;53.35;43.07;68.62;;
61249;Laerm;47119;49.130;9.218;2023-02-28T23:32:00;38.31;31.38;47.82;;
61249;Laerm;47119;49.130;9.218;2023-02-28T23:42:44;41.68;31.02;53.58;;
61249;Laerm;47119;49.130;9.218;2023-02-28T23:45:29;45.63;31.86;61.17;;
61249;Laerm;47119;49.130;9.218;2023-02-28T23:48:01;46.36;31.93;65.79;;
61249;Laerm;47119;49.130;9.218;2023-02-28T23:50:29;36.61;30.73;50.13;;
61249;Laerm;47119;49.130;9.218;2023-02-28T23:53:00;41.70;31.20;56.96;;
61249;Laerm;47119;49.130;9.218;2023-02-28T23:55:27;40.49;31.63;51.93;;
61249;Laerm;47119;49.130;9.218;2023-02-28T23:57:55;42.56;31.03;60.89;;
